FVAE weather

Braebourne Airport
Braebourne, Mashonaland Central Province, Zimbabwe

Public forecast

Using degrees Celsius for public forecast. Weather courtesy of forecast.io.

METAR (pilot weather report)

Report is more than 2 hours old.

Closest report is Robert Gabriel Mugabe International Airport, 76.4 nm (141.4 km) S. Retrieved 2019/05/20 22:00 UTC (4 hours ago):

FVRG 202200Z 00000KT CAVOK 12/06 Q1024 NOSIG

TAF (pilot weather forecast)

Forecast is more than 6 hours old.

Closest forecast is Robert Gabriel Mugabe International Airport, 76.4 nm (141.4 km) S. Retrieved 2019/05/20 18:00 UTC (8 hours ago):

TAF FVRG 201600Z 2018/2124 10006KT CAVOK